MMPA

Details ICAO MMPA (PAZ)
Name TAJIN
Region Mexico
Timezone America/Mexico_City (UTC-6.0)
Plans Departing 1
Arriving 8
Stats Elevation 497 ft / 151 m (AMSL)
Location 20.602670° -97.460837°
Runways 1
Magnetic Variation 3.899° E
Sunrise 2017-12-17 13:00:56 UTC / 2017-12-17 07:00:56 Local
Sunset 2017-12-17 23:53:59 UTC / 2017-12-17 17:53:59 Local
Advertisement - Login to hide

Runways

ID Width Length Bearing (true) Bearing (mag) Surface Threshold Offset Overrun Length
08 148 ft / 45 m 5,896 ft / 1,797 m 89.06° 85.16° Asphalt 0 ft / 0 m 200 ft / 61 m
26 148 ft / 45 m 5,896 ft / 1,797 m 269.07° 265.17° Asphalt 0 ft / 0 m 200 ft / 61 m

Map

Weather


0- 5 10 15 20 25 30 35+ Temperature / ° C

Clouds and Precipitation
Forecast for 2017-12-17 18:00 UTC. Updated an hour ago

Ground ~20,000 ft ~40,000 ft Winds

METAR

Not found

TAF

TAF MMPA 171737Z 1718/1818 00000KT 5SM HZ SCT020 BKN280 FM180200 00000KT 4SM HZ BKN015 BKN280 TEMPO 1810/1814 2SM BR OVC005

Frequencies

Tower 118.90 MHz TWR
Warning: Do not use this data for real-world aviation or navigation. No guarantee of current accuracy is given.